If you wish to contribute or participate in the discussions about articles you are invited to join SKYbrary as a registered user

 Actions

Kalaeloa Airport

From SKYbrary Wiki

PHJR
Airport
ICAO: PHJR – IATA: JRF
Summary
Name Kalaeloa Airport
Region North America
Territory Hawaii US.gif
Location Kapolei, Hawaii
Serving Kapolei
Elevation 9.144 m
30 ft
30 ft9.144 m
Type medium airport
Coordinates 21° 18' 26.00" N, 158° 4' 13.00" W
Runways
Designator Length Width Surface ROPS
04L/22R 1372 m4,501.312 ft
61 m200.131 ft
ASP /
04R/22L 2438 m7,998.688 ft
61 m200.131 ft
ASP /
11/29 1829 m6,000.656 ft
61 m200.131 ft
ASP /


METAR
Observation PHJR 171553Z 05003KT 10SM CLR 24/23 A2992 RMK AO2 SLP137 T02390228
Station Oahu, Kalaeloa Airport
Date/Time 17 September 2019 15:53:00
Wind direction 50°
Wind speed 03 kts
Lowest cloud amount n/a
Temperature 23.9°C
Dew point 22.8°C
Humidity 93%
QNH hPa
Weather condition n/a

Maps

Terrain

Loading map...

Airport Layout

Loading map...


Accidents & Serious Incidents at or in vicinity of PHJR

None on SKYbrary